Time;durP1;ratioP1;P1;durP2;ratioP2;P2;SDS_P1;SDS_P2;PMS_P1;PMS_P2;Temp;Humidity;BMP_temperature;BMP_pressure;BME280_temperature;BME280_humidity;BME280_pressure;Samples;Min_cycle;Max_cycle;Signal;HPM_P1;HPM_P2
2022/01/28 00:04:49;;;;;;;;;;;19.30;57.80;;;;;;5051192;28;1437;-68
2022/01/28 00:07:15;;;;;;;;;;;19.20;57.80;;;;;;5049769;28;1323;-68
2022/01/28 00:09:40;;;;;;;;;;;19.20;57.80;;;;;;5051280;28;1339;-67
2022/01/28 00:12:08;;;;;;;;;;;19.20;57.80;;;;;;5052726;28;1390;-68
2022/01/28 00:20:57;;;;;;;;;;;19.20;57.90;;;;;;5050713;28;1107;-68
2022/01/28 00:36:47;;;;;;;;;;;19.20;58.00;;;;;;5050814;28;1083;-68
2022/01/28 00:39:12;;;;;;;;;;;19.20;58.00;;;;;;5051212;28;1278;-68
2022/01/28 00:41:38;;;;;;;;;;;19.20;58.00;;;;;;5051597;28;1368;-68
2022/01/28 00:44:03;;;;;;;;;;;19.10;58.00;;;;;;5050889;28;1432;-68
2022/01/28 00:46:29;;;;;;;;;;;19.10;58.00;;;;;;5053494;28;1043;-68
2022/01/28 00:48:56;;;;;;;;;;;19.10;58.00;;;;;;5053286;28;1375;-68
2022/01/28 00:51:21;;;;;;;;;;;19.10;58.00;;;;;;5054927;28;1055;-68
2022/01/28 00:53:47;;;;;;;;;;;19.10;58.00;;;;;;5054810;28;1949;-69
2022/01/28 00:56:12;;;;;;;;;;;19.10;58.10;;;;;;5047320;28;1472;-69
2022/01/28 00:58:38;;;;;;;;;;;19.10;58.10;;;;;;5053386;28;1379;-68
2022/01/28 01:01:03;;;;;;;;;;;19.10;58.10;;;;;;5054939;28;1266;-68
2022/01/28 01:03:29;;;;;;;;;;;19.10;58.10;;;;;;5054736;28;1452;-68
2022/01/28 01:05:54;;;;;;;;;;;19.10;58.10;;;;;;5054871;28;1090;-68
2022/01/28 01:08:19;;;;;;;;;;;19.10;58.20;;;;;;5054157;28;1388;-68
2022/01/28 01:10:45;;;;;;;;;;;19.10;58.20;;;;;;5054815;28;1345;-68
2022/01/28 01:13:10;;;;;;;;;;;19.10;58.20;;;;;;5054768;28;1271;-69
2022/01/28 01:15:41;;;;;;;;;;;19.10;58.20;;;;;;5053798;28;1894;-69
2022/01/28 01:18:20;;;;;;;;;;;19.10;58.20;;;;;;5052579;28;1446;-70
2022/01/28 01:23:16;;;;;;;;;;;19.00;58.20;;;;;;5054964;28;1352;-69
2022/01/28 01:25:52;;;;;;;;;;;19.00;58.20;;;;;;5053344;28;1407;-69
2022/01/28 01:28:20;;;;;;;;;;;19.00;58.20;;;;;;5052659;28;1371;-69
2022/01/28 01:30:46;;;;;;;;;;;19.00;58.20;;;;;;5054040;28;1053;-69
2022/01/28 01:33:12;;;;;;;;;;;19.00;58.20;;;;;;5052321;28;1369;-69
2022/01/28 01:35:38;;;;;;;;;;;19.00;58.20;;;;;;5053025;28;1898;-69
2022/01/28 01:38:03;;;;;;;;;;;19.00;58.20;;;;;;5053877;28;1327;-70
2022/01/28 01:40:35;;;;;;;;;;;19.00;58.30;;;;;;5053338;28;1110;-69
2022/01/28 01:53:37;;;;;;;;;;;19.00;58.30;;;;;;5052734;28;1957;-70
2022/01/28 01:56:03;;;;;;;;;;;19.00;58.30;;;;;;5053753;28;1269;-70
2022/01/28 01:58:32;;;;;;;;;;;19.00;58.40;;;;;;5052167;28;1238;-70
2022/01/28 02:01:00;;;;;;;;;;;19.00;58.40;;;;;;5053828;28;1413;-70
2022/01/28 02:03:27;;;;;;;;;;;19.00;58.40;;;;;;5052558;28;1312;-69
2022/01/28 02:05:54;;;;;;;;;;;19.00;58.40;;;;;;5052395;28;1378;-70
2022/01/28 02:08:19;;;;;;;;;;;19.00;58.40;;;;;;5051865;28;1384;-70
2022/01/28 02:10:45;;;;;;;;;;;19.00;58.40;;;;;;5036184;28;1445;-70
2022/01/28 02:13:10;;;;;;;;;;;18.90;58.40;;;;;;5054010;28;1403;-70
2022/01/28 02:15:35;;;;;;;;;;;18.90;58.40;;;;;;5051968;28;1950;-70
2022/01/28 02:18:01;;;;;;;;;;;18.90;58.40;;;;;;5053035;28;1298;-70
2022/01/28 02:20:36;;;;;;;;;;;18.90;58.40;;;;;;5053403;28;1094;-70
2022/01/28 02:23:02;;;;;;;;;;;18.90;58.40;;;;;;5053426;28;1395;-70
2022/01/28 02:25:28;;;;;;;;;;;18.90;58.40;;;;;;5052501;28;1080;-70
2022/01/28 02:27:56;;;;;;;;;;;18.90;58.40;;;;;;5051231;28;1291;-70
2022/01/28 02:30:21;;;;;;;;;;;18.90;58.40;;;;;;5053370;28;1177;-69
2022/01/28 02:32:49;;;;;;;;;;;18.90;58.40;;;;;;5046703;28;1048;-70
2022/01/28 02:35:14;;;;;;;;;;;18.90;58.40;;;;;;5049005;28;2037;-70
2022/01/28 02:37:39;;;;;;;;;;;18.90;58.50;;;;;;5051496;28;1457;-70
2022/01/28 02:40:05;;;;;;;;;;;18.90;58.40;;;;;;5052843;28;1369;-69
2022/01/28 02:42:48;;;;;;;;;;;18.90;58.40;;;;;;5053313;28;1392;-70
2022/01/28 02:45:24;;;;;;;;;;;18.90;58.40;;;;;;5052130;28;1496;-69
2022/01/28 02:47:55;;;;;;;;;;;18.90;58.50;;;;;;5050905;28;1346;-68
2022/01/28 02:50:20;;;;;;;;;;;18.90;58.40;;;;;;5052638;28;995;-69
2022/01/28 02:53:01;;;;;;;;;;;19.00;58.40;;;;;;5051671;28;1366;-68
2022/01/28 02:55:26;;;;;;;;;;;19.00;58.30;;;;;;5053054;28;1965;-69
2022/01/28 02:58:03;;;;;;;;;;;19.10;58.30;;;;;;5051637;28;1747;-69
2022/01/28 03:00:28;;;;;;;;;;;19.20;58.20;;;;;;5053017;28;1042;-68
2022/01/28 03:02:54;;;;;;;;;;;19.20;58.00;;;;;;5048763;28;1235;-69
2022/01/28 03:05:33;;;;;;;;;;;19.30;57.90;;;;;;5052890;28;1035;-69
2022/01/28 03:08:02;;;;;;;;;;;19.50;57.70;;;;;;5052051;28;1390;-69
2022/01/28 03:13:29;;;;;;;;;;;19.70;57.20;;;;;;5033034;28;1368;-70
2022/01/28 03:16:05;;;;;;;;;;;19.90;56.90;;;;;;5053234;28;1403;-69
2022/01/28 03:18:41;;;;;;;;;;;20.00;56.60;;;;;;5050443;28;1382;-69
2022/01/28 03:21:19;;;;;;;;;;;20.10;56.30;;;;;;5052166;28;1298;-69
2022/01/28 03:23:44;;;;;;;;;;;20.30;56.10;;;;;;5041177;28;1226;-68
2022/01/28 03:26:09;;;;;;;;;;;20.30;55.70;;;;;;5042955;28;1289;-70
2022/01/28 03:28:35;;;;;;;;;;;20.40;55.50;;;;;;5044783;28;1307;-70
2022/01/28 03:31:00;;;;;;;;;;;20.50;55.30;;;;;;5057997;28;1259;-70
2022/01/28 03:33:26;;;;;;;;;;;20.60;55.10;;;;;;5042649;28;1969;-69
2022/01/28 03:35:51;;;;;;;;;;;20.60;54.90;;;;;;5045730;28;1195;-70
2022/01/28 03:38:16;;;;;;;;;;;20.70;54.80;;;;;;5040767;28;1426;-69
2022/01/28 03:40:42;;;;;;;;;;;20.80;54.60;;;;;;5042519;28;1163;-69
2022/01/28 03:43:08;;;;;;;;;;;20.80;54.50;;;;;;5042678;28;1759;-70
2022/01/28 03:45:33;;;;;;;;;;;20.80;54.40;;;;;;5043346;28;1273;-69
2022/01/28 03:47:59;;;;;;;;;;;20.90;54.30;;;;;;5051302;28;1288;-69
2022/01/28 03:50:24;;;;;;;;;;;20.90;54.20;;;;;;5050522;28;1722;-69
2022/01/28 03:52:50;;;;;;;;;;;21.00;54.10;;;;;;5052284;28;1154;-69
2022/01/28 03:55:16;;;;;;;;;;;21.00;54.10;;;;;;5052499;28;1957;-69
2022/01/28 03:57:41;;;;;;;;;;;21.10;54.00;;;;;;5050789;28;1365;-69
2022/01/28 04:00:07;;;;;;;;;;;21.00;53.90;;;;;;5051755;28;1067;-69
2022/01/28 04:02:36;;;;;;;;;;;21.10;53.90;;;;;;5050666;28;1075;-69
2022/01/28 04:05:57;;;;;;;;;;;21.10;53.90;;;;;;5051656;28;1405;-69
2022/01/28 04:13:19;;;;;;;;;;;21.10;54.00;;;;;;5052086;28;1094;-70
2022/01/28 04:16:15;;;;;;;;;;;21.10;54.00;;;;;;5050872;28;1274;-69
2022/01/28 04:18:36;;;;;;;;;;;21.10;54.00;;;;;;5069446;22;1775;-67
2022/01/28 04:21:02;;;;;;;;;;;21.10;54.00;;;;;;5041655;28;1325;-67
2022/01/28 04:23:27;;;;;;;;;;;21.10;54.00;;;;;;5055972;28;1073;-67
2022/01/28 04:25:53;;;;;;;;;;;21.10;53.90;;;;;;5056179;28;1056;-67
2022/01/28 04:28:18;;;;;;;;;;;21.10;53.90;;;;;;5055684;28;1298;-67
2022/01/28 04:30:44;;;;;;;;;;;21.10;53.90;;;;;;5038147;28;1333;-67
2022/01/28 04:33:09;;;;;;;;;;;21.10;54.50;;;;;;5056152;28;1063;-67
2022/01/28 04:35:35;;;;;;;;;;;21.10;54.00;;;;;;5071315;28;1905;-67
2022/01/28 04:38:25;;;;;;;;;;;21.10;54.00;;;;;;5055487;28;1369;-67
2022/01/28 04:41:20;;;;;;;;;;;21.00;54.00;;;;;;5055924;28;973;-67
2022/01/28 04:43:45;;;;;;;;;;;21.00;54.10;;;;;;5068083;28;1166;-67
2022/01/28 04:49:04;;;;;;;;;;;21.00;54.20;;;;;;5068576;28;1350;-67
2022/01/28 05:00:08;;;;;;;;;;;20.90;54.40;;;;;;4983535;28;1235;-67
2022/01/28 05:05:45;;;;;;;;;;;20.90;54.50;;;;;;5055502;28;1087;-67
2022/01/28 05:08:14;;;;;;;;;;;20.80;54.50;;;;;;5054284;28;1378;-67
2022/01/28 05:26:38;;;;;;;;;;;20.70;54.70;;;;;;5055191;28;1067;-67
2022/01/28 05:29:03;;;;;;;;;;;20.70;54.80;;;;;;5054366;28;1301;-67
2022/01/28 05:31:28;;;;;;;;;;;20.70;54.80;;;;;;5054534;28;1361;-67
2022/01/28 05:33:54;;;;;;;;;;;20.70;54.90;;;;;;5054623;28;2022;-67
2022/01/28 05:36:19;;;;;;;;;;;20.60;54.80;;;;;;5054817;28;1099;-67
2022/01/28 05:38:45;;;;;;;;;;;20.60;54.90;;;;;;5036582;28;1378;-67
2022/01/28 05:41:10;;;;;;;;;;;20.60;54.90;;;;;;5070311;28;1067;-67
2022/01/28 05:43:36;;;;;;;;;;;20.60;54.90;;;;;;5054677;28;1194;-67
2022/01/28 05:46:01;;;;;;;;;;;20.60;55.00;;;;;;5054767;28;1352;-67
2022/01/28 05:48:27;;;;;;;;;;;20.60;55.00;;;;;;5054275;28;1330;-67
2022/01/28 05:50:52;;;;;;;;;;;20.60;55.00;;;;;;5046441;28;1688;-67
2022/01/28 05:53:17;;;;;;;;;;;20.60;55.10;;;;;;5031733;28;2084;-68
2022/01/28 05:55:43;;;;;;;;;;;20.60;55.10;;;;;;5046314;28;1894;-68
2022/01/28 05:58:08;;;;;;;;;;;20.50;55.10;;;;;;5036190;28;1357;-68
2022/01/28 06:00:34;;;;;;;;;;;20.50;55.10;;;;;;5054079;28;1242;-68
2022/01/28 06:02:59;;;;;;;;;;;20.50;55.20;;;;;;5054198;28;1334;-68
2022/01/28 06:05:30;;;;;;;;;;;20.50;55.20;;;;;;5054346;28;1337;-67
2022/01/28 06:07:56;;;;;;;;;;;20.50;55.20;;;;;;5049278;28;1337;-68
2022/01/28 06:10:22;;;;;;;;;;;20.50;55.30;;;;;;5054111;28;1056;-67
2022/01/28 06:12:47;;;;;;;;;;;20.50;55.30;;;;;;5053939;28;1452;-68
2022/01/28 06:15:13;;;;;;;;;;;20.40;55.30;;;;;;5054096;28;1960;-68
2022/01/28 06:17:38;;;;;;;;;;;20.40;55.30;;;;;;5054009;28;1315;-68
2022/01/28 06:20:04;;;;;;;;;;;20.40;55.40;;;;;;5069237;28;1355;-68
2022/01/28 06:22:30;;;;;;;;;;;20.40;55.40;;;;;;5068881;28;1279;-68
2022/01/28 06:24:55;;;;;;;;;;;20.40;55.50;;;;;;5069350;28;1067;-68
2022/01/28 06:27:22;;;;;;;;;;;20.40;55.50;;;;;;5068826;28;1252;-68
2022/01/28 06:29:48;;;;;;;;;;;20.40;55.50;;;;;;5053516;28;1229;-68
2022/01/28 06:32:14;;;;;;;;;;;20.30;55.60;;;;;;5053579;28;1377;-69
2022/01/28 06:34:39;;;;;;;;;;;20.30;55.50;;;;;;5053389;28;1906;-69
2022/01/28 06:37:05;;;;;;;;;;;20.30;55.50;;;;;;5053077;28;1277;-67
2022/01/28 06:39:32;;;;;;;;;;;20.30;55.60;;;;;;5053403;28;1579;-67
2022/01/28 06:41:58;;;;;;;;;;;20.30;55.60;;;;;;5053507;28;1374;-67
2022/01/28 06:44:24;;;;;;;;;;;20.30;55.60;;;;;;5052714;28;1407;-67
2022/01/28 06:46:49;;;;;;;;;;;20.30;55.70;;;;;;5053267;28;1323;-66
2022/01/28 06:49:14;;;;;;;;;;;20.30;55.70;;;;;;5052828;28;1274;-67
2022/01/28 06:51:40;;;;;;;;;;;20.30;55.70;;;;;;5052914;28;1099;-68
2022/01/28 06:54:05;;;;;;;;;;;20.30;55.80;;;;;;5053150;28;1880;-67
2022/01/28 06:56:31;;;;;;;;;;;20.20;55.80;;;;;;5053190;28;1322;-67
2022/01/28 06:58:56;;;;;;;;;;;20.20;55.80;;;;;;5052814;28;1305;-68
2022/01/28 07:01:21;;;;;;;;;;;20.20;55.80;;;;;;5053007;28;1352;-68
2022/01/28 07:03:47;;;;;;;;;;;20.20;55.80;;;;;;5052864;28;1402;-67
2022/01/28 07:06:14;;;;;;;;;;;20.20;55.90;;;;;;5052943;28;1459;-67
2022/01/28 07:08:39;;;;;;;;;;;20.20;55.90;;;;;;5052832;28;1440;-67
2022/01/28 07:11:04;;;;;;;;;;;20.20;55.90;;;;;;5067413;28;1385;-67
2022/01/28 07:13:30;;;;;;;;;;;20.20;56.00;;;;;;5052899;28;1967;-67
2022/01/28 07:15:55;;;;;;;;;;;20.10;55.90;;;;;;5068519;28;1306;-67
2022/01/28 07:18:21;;;;;;;;;;;20.10;55.90;;;;;;5050369;28;2144;-67
2022/01/28 07:20:47;;;;;;;;;;;20.10;55.90;;;;;;5048570;28;1056;-67
2022/01/28 07:23:12;;;;;;;;;;;20.10;56.00;;;;;;5048374;28;1065;-68
2022/01/28 07:25:37;;;;;;;;;;;20.10;56.00;;;;;;5050297;28;1321;-68
2022/01/28 07:28:03;;;;;;;;;;;20.10;56.00;;;;;;5052659;28;1305;-67
2022/01/28 07:30:28;;;;;;;;;;;20.10;56.10;;;;;;5034878;28;1394;-67
2022/01/28 07:32:54;;;;;;;;;;;20.10;56.10;;;;;;5052848;28;1357;-67
2022/01/28 07:35:19;;;;;;;;;;;20.10;56.10;;;;;;5067951;28;1949;-67
2022/01/28 07:37:45;;;;;;;;;;;20.10;56.10;;;;;;5052354;28;1283;-67
2022/01/28 07:40:11;;;;;;;;;;;20.00;56.10;;;;;;5052725;28;1100;-67
2022/01/28 07:42:36;;;;;;;;;;;20.10;56.10;;;;;;5052612;28;1276;-67
2022/01/28 07:45:02;;;;;;;;;;;20.00;56.10;;;;;;5047288;28;1824;-70
2022/01/28 07:47:28;;;;;;;;;;;20.00;56.10;;;;;;5052404;28;1038;-70
2022/01/28 07:49:54;;;;;;;;;;;20.10;56.20;;;;;;5052058;28;1218;-70
2022/01/28 07:52:19;;;;;;;;;;;20.10;56.10;;;;;;5052559;28;1694;-69
2022/01/28 07:54:48;;;;;;;;;;;20.10;56.10;;;;;;5052683;28;1894;-69
2022/01/28 07:57:14;;;;;;;;;;;20.20;56.00;;;;;;5056505;28;1278;-69
2022/01/28 07:59:39;;;;;;;;;;;20.30;55.90;;;;;;5056716;28;1419;-68
2022/01/28 08:02:05;;;;;;;;;;;20.30;55.70;;;;;;5056624;28;1067;-66
2022/01/28 08:04:30;;;;;;;;;;;20.50;55.60;;;;;;5057041;28;1348;-66
2022/01/28 08:06:56;;;;;;;;;;;20.50;55.50;;;;;;5055359;28;1411;-66
2022/01/28 08:09:21;;;;;;;;;;;20.60;55.30;;;;;;5055494;28;1425;-66
2022/01/28 08:11:46;;;;;;;;;;;20.70;55.00;;;;;;5072082;28;1299;-66
2022/01/28 08:14:13;;;;;;;;;;;20.80;54.90;;;;;;5056227;28;1902;-66
2022/01/28 08:16:39;;;;;;;;;;;20.90;54.60;;;;;;5056502;28;1366;-66
2022/01/28 08:19:05;;;;;;;;;;;21.00;54.50;;;;;;5055813;28;1776;-66
2022/01/28 08:21:30;;;;;;;;;;;21.00;54.30;;;;;;5056387;28;1367;-66
2022/01/28 08:23:55;;;;;;;;;;;21.10;54.20;;;;;;5056275;28;1310;-66
2022/01/28 08:26:21;;;;;;;;;;;21.10;54.10;;;;;;5056383;28;1321;-66
2022/01/28 08:28:47;;;;;;;;;;;21.20;54.00;;;;;;5055560;28;1320;-66
2022/01/28 08:31:13;;;;;;;;;;;21.20;53.90;;;;;;5056084;28;1350;-67
2022/01/28 08:33:38;;;;;;;;;;;21.20;53.90;;;;;;5071282;28;1971;-66
2022/01/28 08:36:04;;;;;;;;;;;21.30;53.90;;;;;;5056112;28;1316;-66
2022/01/28 08:38:35;;;;;;;;;;;21.30;53.80;;;;;;5071133;28;1329;-66
2022/01/28 08:41:01;;;;;;;;;;;21.30;53.80;;;;;;5037906;28;1377;-67
2022/01/28 08:43:27;;;;;;;;;;;21.30;53.80;;;;;;5055713;28;1270;-67
2022/01/28 08:45:52;;;;;;;;;;;21.30;53.80;;;;;;5071115;28;1326;-67
2022/01/28 08:48:17;;;;;;;;;;;21.30;53.70;;;;;;5055247;28;1382;-66
2022/01/28 08:50:43;;;;;;;;;;;21.30;53.70;;;;;;5055692;28;1366;-67
2022/01/28 08:53:09;;;;;;;;;;;21.30;53.70;;;;;;5056098;28;1161;-66
2022/01/28 08:55:34;;;;;;;;;;;21.30;53.70;;;;;;5055889;28;1957;-67
2022/01/28 08:58:00;;;;;;;;;;;21.30;53.80;;;;;;5055395;28;1204;-66
2022/01/28 09:00:25;;;;;;;;;;;21.30;53.70;;;;;;5055467;28;1307;-67
2022/01/28 09:02:51;;;;;;;;;;;21.30;53.80;;;;;;5055446;28;1225;-67
2022/01/28 09:05:16;;;;;;;;;;;21.20;53.80;;;;;;5055501;28;1357;-66
2022/01/28 09:07:42;;;;;;;;;;;21.20;53.80;;;;;;5054211;28;1396;-67
2022/01/28 09:10:17;;;;;;;;;;;21.20;53.90;;;;;;5055749;28;1415;-66
2022/01/28 09:13:09;;;;;;;;;;;21.20;54.50;;;;;;5069743;28;1322;-66
2022/01/28 09:15:35;;;;;;;;;;;21.10;54.00;;;;;;5055059;28;1948;-67
2022/01/28 09:18:02;;;;;;;;;;;21.10;54.00;;;;;;5070634;28;1330;-67
2022/01/28 09:20:27;;;;;;;;;;;21.10;54.10;;;;;;5054911;28;1060;-67
2022/01/28 09:22:53;;;;;;;;;;;21.10;54.10;;;;;;5070863;28;1680;-67
2022/01/28 09:25:18;;;;;;;;;;;21.10;54.20;;;;;;5055135;28;1295;-67
2022/01/28 09:27:44;;;;;;;;;;;21.10;54.20;;;;;;5054575;28;1290;-67
2022/01/28 09:30:09;;;;;;;;;;;21.10;54.30;;;;;;5054853;28;1221;-67
2022/01/28 09:32:35;;;;;;;;;;;21.00;54.20;;;;;;5055390;28;1282;-68
2022/01/28 09:35:01;;;;;;;;;;;21.00;54.30;;;;;;5054707;28;1967;-67
2022/01/28 09:37:27;;;;;;;;;;;21.00;54.40;;;;;;5055151;28;1362;-67
2022/01/28 09:39:53;;;;;;;;;;;21.00;54.40;;;;;;5054961;28;1419;-68
2022/01/28 09:42:20;;;;;;;;;;;21.00;54.40;;;;;;5054750;28;1403;-67
2022/01/28 09:44:45;;;;;;;;;;;20.90;54.40;;;;;;5054757;28;1120;-67
2022/01/28 09:47:11;;;;;;;;;;;20.90;54.50;;;;;;5070028;28;1075;-67
2022/01/28 09:49:37;;;;;;;;;;;20.90;54.50;;;;;;5054602;28;1452;-67
2022/01/28 09:52:03;;;;;;;;;;;20.90;54.60;;;;;;5070449;28;1270;-67
2022/01/28 09:54:28;;;;;;;;;;;20.90;54.60;;;;;;5054362;28;1894;-69
2022/01/28 09:56:54;;;;;;;;;;;20.90;54.60;;;;;;5067037;28;2393;-67
2022/01/28 09:59:19;;;;;;;;;;;20.90;54.60;;;;;;5043103;28;2189;-68
2022/01/28 10:01:52;;;;;;;;;;;20.80;54.70;;;;;;5045885;28;1146;-68
2022/01/28 10:04:18;;;;;;;;;;;20.80;54.70;;;;;;5023729;28;1305;-69
2022/01/28 10:06:43;;;;;;;;;;;20.80;54.70;;;;;;5069766;28;1091;-68
2022/01/28 10:09:09;;;;;;;;;;;20.80;54.80;;;;;;5035829;28;1414;-68
2022/01/28 10:11:36;;;;;;;;;;;20.80;54.80;;;;;;5069392;28;1118;-67
2022/01/28 10:14:07;;;;;;;;;;;20.80;54.80;;;;;;5069248;28;1965;-68
2022/01/28 10:16:32;;;;;;;;;;;20.80;54.80;;;;;;5054213;28;1376;-68
2022/01/28 10:18:58;;;;;;;;;;;20.80;54.90;;;;;;5080538;22;3843;-68
2022/01/28 10:21:25;;;;;;;;;;;20.80;54.90;;;;;;5072368;28;1012;-69
2022/01/28 10:23:59;;;;;;;;;;;20.80;54.90;;;;;;5073821;28;1071;-68
2022/01/28 10:26:32;;;;;;;;;;;20.70;54.90;;;;;;5074031;28;1057;-68
2022/01/28 10:28:58;;;;;;;;;;;20.70;54.90;;;;;;5064214;28;1382;-68
2022/01/28 10:31:32;;;;;;;;;;;20.70;55.00;;;;;;5069470;28;1067;-68
2022/01/28 10:34:08;;;;;;;;;;;20.70;55.00;;;;;;5053792;28;1910;-68
2022/01/28 10:36:33;;;;;;;;;;;20.70;55.10;;;;;;5052514;28;1294;-68
2022/01/28 10:38:59;;;;;;;;;;;20.70;55.10;;;;;;5053415;28;1305;-68
2022/01/28 10:41:25;;;;;;;;;;;20.70;55.10;;;;;;5053819;28;1377;-68
2022/01/28 10:43:53;;;;;;;;;;;20.60;55.10;;;;;;5053519;28;1230;-68
2022/01/28 10:46:26;;;;;;;;;;;20.60;55.10;;;;;;5052594;28;1042;-68
2022/01/28 10:48:55;;;;;;;;;;;20.60;55.20;;;;;;5053310;28;1317;-68
2022/01/28 10:51:21;;;;;;;;;;;20.60;55.20;;;;;;5052203;28;1226;-68
2022/01/28 10:54:05;;;;;;;;;;;20.60;55.20;;;;;;5053393;28;1906;-68
2022/01/28 10:56:31;;;;;;;;;;;20.60;55.20;;;;;;5053539;28;1328;-68
2022/01/28 10:58:57;;;;;;;;;;;20.60;55.30;;;;;;5051855;28;1264;-68
2022/01/28 11:01:24;;;;;;;;;;;20.60;55.30;;;;;;5052335;28;1282;-68
2022/01/28 11:03:49;;;;;;;;;;;20.60;55.30;;;;;;5052412;28;1341;-68
2022/01/28 11:06:16;;;;;;;;;;;20.60;55.30;;;;;;5052300;28;1118;-68
2022/01/28 11:08:41;;;;;;;;;;;20.50;55.30;;;;;;5051802;28;1359;-68
2022/01/28 11:11:07;;;;;;;;;;;20.50;55.40;;;;;;5052064;28;1216;-68
2022/01/28 11:13:32;;;;;;;;;;;20.50;55.40;;;;;;5053157;28;1137;-68
2022/01/28 11:15:58;;;;;;;;;;;20.50;55.40;;;;;;5051926;28;1949;-68
2022/01/28 11:18:23;;;;;;;;;;;20.50;55.40;;;;;;5052732;28;1259;-68
2022/01/28 11:20:50;;;;;;;;;;;20.50;55.40;;;;;;5051783;28;1322;-68
2022/01/28 11:23:31;;;;;;;;;;;20.50;55.50;;;;;;5052282;28;1082;-69
2022/01/28 11:26:03;;;;;;;;;;;20.50;55.50;;;;;;5053139;28;1035;-68
2022/01/28 11:29:02;;;;;;;;;;;20.50;55.40;;;;;;5052558;28;1297;-68
2022/01/28 11:31:45;;;;;;;;;;;20.50;55.40;;;;;;5029885;28;1562;-68
2022/01/28 11:34:30;;;;;;;;;;;20.60;55.40;;;;;;5052861;28;1918;-68
2022/01/28 11:36:56;;;;;;;;;;;20.60;55.30;;;;;;5052562;28;980;-68
2022/01/28 11:39:28;;;;;;;;;;;20.60;55.20;;;;;;5052577;28;1309;-68
2022/01/28 11:42:00;;;;;;;;;;;20.70;55.20;;;;;;5050616;28;1733;-69
2022/01/28 11:44:52;;;;;;;;;;;20.70;55.20;;;;;;5041317;28;1941;-68
2022/01/28 11:47:22;;;;;;;;;;;20.70;55.10;;;;;;5045628;28;1190;-68
2022/01/28 11:49:53;;;;;;;;;;;20.70;55.10;;;;;;5042728;28;1387;-68
2022/01/28 11:52:22;;;;;;;;;;;20.70;55.00;;;;;;5048588;28;1146;-68
2022/01/28 11:54:47;;;;;;;;;;;20.70;55.00;;;;;;5051447;28;1906;-69
2022/01/28 11:57:14;;;;;;;;;;;20.70;55.00;;;;;;5052360;28;1079;-69
2022/01/28 11:59:39;;;;;;;;;;;20.70;54.90;;;;;;5050695;28;1808;-69
2022/01/28 12:02:04;;;;;;;;;;;20.70;55.00;;;;;;5041850;28;1110;-69
2022/01/28 12:04:34;;;;;;;;;;;20.80;55.00;;;;;;5039836;28;1294;-69
2022/01/28 12:07:09;;;;;;;;;;;20.70;54.90;;;;;;5049331;28;1198;-68
2022/01/28 12:09:35;;;;;;;;;;;20.70;54.90;;;;;;5046323;28;1368;-68
2022/01/28 12:12:01;;;;;;;;;;;20.70;54.90;;;;;;5058442;28;1244;-68
2022/01/28 12:14:45;;;;;;;;;;;20.70;54.90;;;;;;5051159;28;1901;-69
2022/01/28 12:17:29;;;;;;;;;;;20.70;54.90;;;;;;5052575;28;1399;-69
2022/01/28 12:20:13;;;;;;;;;;;20.70;54.90;;;;;;5052371;28;1203;-68
2022/01/28 12:23:00;;;;;;;;;;;20.70;55.00;;;;;;5052942;28;1420;-68
2022/01/28 12:25:35;;;;;;;;;;;20.70;54.90;;;;;;5051215;28;1288;-68
2022/01/28 12:28:16;;;;;;;;;;;20.70;55.00;;;;;;5052036;28;1270;-69
2022/01/28 12:30:42;;;;;;;;;;;20.70;55.00;;;;;;5051147;28;1401;-69
2022/01/28 12:33:08;;;;;;;;;;;20.70;55.60;;;;;;5051094;28;1315;-68
2022/01/28 12:35:35;;;;;;;;;;;20.70;55.00;;;;;;5052405;28;1910;-68
2022/01/28 12:38:02;;;;;;;;;;;20.70;55.00;;;;;;5050881;28;1325;-68
2022/01/28 12:40:35;;;;;;;;;;;20.60;55.00;;;;;;5052242;28;1265;-69
2022/01/28 12:43:00;;;;;;;;;;;20.70;55.10;;;;;;5054814;28;1079;-68
2022/01/28 12:45:26;;;;;;;;;;;20.70;55.10;;;;;;5054602;28;1215;-68
2022/01/28 12:47:51;;;;;;;;;;;20.70;55.10;;;;;;5054527;28;1313;-68
2022/01/28 12:50:17;;;;;;;;;;;20.70;55.10;;;;;;5055836;28;1374;-68
2022/01/28 12:52:44;;;;;;;;;;;20.70;55.00;;;;;;5055940;28;1262;-68
2022/01/28 12:55:10;;;;;;;;;;;20.70;55.00;;;;;;5055618;28;1898;-68
2022/01/28 12:57:40;;;;;;;;;;;20.80;55.00;;;;;;5055707;28;996;-69
2022/01/28 13:00:06;;;;;;;;;;;20.80;55.00;;;;;;5055967;28;1414;-68
2022/01/28 13:02:35;;;;;;;;;;;20.80;54.90;;;;;;5055881;28;1065;-68
2022/01/28 13:10:19;;;;;;;;;;;20.90;54.70;;;;;;5055465;28;1331;-68
2022/01/28 13:12:45;;;;;;;;;;;20.90;54.60;;;;;;5055458;28;1400;-68
2022/01/28 13:15:11;;;;;;;;;;;21.00;54.60;;;;;;5054156;28;1955;-69
2022/01/28 13:17:37;;;;;;;;;;;21.00;54.50;;;;;;5055326;28;1324;-69
2022/01/28 13:20:06;;;;;;;;;;;21.00;54.50;;;;;;5053825;28;1302;-68
2022/01/28 13:22:31;;;;;;;;;;;21.00;54.50;;;;;;5055271;28;1087;-68
2022/01/28 13:24:57;;;;;;;;;;;21.00;54.40;;;;;;5053932;28;1110;-68
2022/01/28 13:27:23;;;;;;;;;;;21.00;54.50;;;;;;5053632;28;1159;-68
2022/01/28 13:29:51;;;;;;;;;;;21.00;54.50;;;;;;5053686;28;1421;-68
2022/01/28 13:32:23;;;;;;;;;;;21.00;54.50;;;;;;5070354;28;1367;-68
2022/01/28 13:34:50;;;;;;;;;;;21.00;54.50;;;;;;5055065;28;1957;-69
2022/01/28 13:37:37;;;;;;;;;;;21.00;54.50;;;;;;5054828;28;1431;-68
2022/01/28 13:40:02;;;;;;;;;;;21.00;54.50;;;;;;5054580;28;1372;-68
2022/01/28 13:42:28;;;;;;;;;;;20.90;54.50;;;;;;5055262;28;1098;-69
2022/01/28 13:44:53;;;;;;;;;;;20.90;54.50;;;;;;5055107;28;1372;-68
2022/01/28 13:47:19;;;;;;;;;;;20.90;54.60;;;;;;5054703;28;1389;-68
2022/01/28 13:49:44;;;;;;;;;;;20.90;54.60;;;;;;5054681;28;1375;-68
2022/01/28 13:52:45;;;;;;;;;;;20.90;54.60;;;;;;5053565;28;1255;-69
2022/01/28 13:55:04;;;;;;;;;;;20.90;54.60;;;;;;5054277;28;1926;-69
2022/01/28 13:57:30;;;;;;;;;;;20.90;54.70;;;;;;5053641;28;1305;-69
2022/01/28 14:00:01;;;;;;;;;;;20.90;54.60;;;;;;5054466;28;1376;-68
2022/01/28 14:02:27;;;;;;;;;;;20.80;54.60;;;;;;5054833;28;1051;-68
2022/01/28 14:04:52;;;;;;;;;;;20.80;54.70;;;;;;5054331;28;1396;-68
2022/01/28 14:07:18;;;;;;;;;;;20.80;54.70;;;;;;5053126;28;1131;-68
2022/01/28 14:09:46;;;;;;;;;;;20.80;54.80;;;;;;5052201;28;2076;-69
2022/01/28 14:12:22;;;;;;;;;;;20.80;54.80;;;;;;5047411;28;1909;-68
2022/01/28 14:14:48;;;;;;;;;;;20.80;54.80;;;;;;5051053;28;1951;-69
2022/01/28 14:17:14;;;;;;;;;;;20.80;54.90;;;;;;5053856;28;1134;-68
2022/01/28 14:19:41;;;;;;;;;;;20.80;54.90;;;;;;5053988;28;1256;-68
2022/01/28 14:22:08;;;;;;;;;;;20.80;54.90;;;;;;5054389;28;1142;-68
2022/01/28 14:24:37;;;;;;;;;;;20.70;54.90;;;;;;5054272;28;1421;-68
2022/01/28 14:31:55;;;;;;;;;;;20.70;55.00;;;;;;5069248;28;1178;-69
2022/01/28 14:34:20;;;;;;;;;;;20.70;55.10;;;;;;5053754;28;1975;-69
2022/01/28 14:36:46;;;;;;;;;;;20.70;55.10;;;;;;5052699;28;1346;-69
2022/01/28 14:39:11;;;;;;;;;;;20.70;55.10;;;;;;5052305;28;1227;-69
2022/01/28 14:41:37;;;;;;;;;;;20.70;55.10;;;;;;5052630;28;1309;-69
2022/01/28 14:44:03;;;;;;;;;;;20.60;55.10;;;;;;5053638;28;1331;-69
2022/01/28 14:46:29;;;;;;;;;;;20.60;55.10;;;;;;5053545;28;1381;-69
2022/01/28 14:48:54;;;;;;;;;;;20.60;55.20;;;;;;5053432;28;1356;-69
2022/01/28 14:51:20;;;;;;;;;;;20.60;55.20;;;;;;5053553;28;1302;-69
2022/01/28 14:53:45;;;;;;;;;;;20.60;55.20;;;;;;5052297;28;1890;-69
2022/01/28 14:56:11;;;;;;;;;;;20.60;55.30;;;;;;5052207;28;1288;-69
2022/01/28 14:58:36;;;;;;;;;;;20.60;55.30;;;;;;5052062;28;1337;-69
2022/01/28 15:01:01;;;;;;;;;;;20.60;55.30;;;;;;5053199;28;1384;-69
2022/01/28 15:03:27;;;;;;;;;;;20.60;55.30;;;;;;5052199;28;1266;-69
2022/01/28 15:05:52;;;;;;;;;;;20.50;55.30;;;;;;5052701;28;1281;-69
2022/01/28 15:08:26;;;;;;;;;;;20.50;55.40;;;;;;5052036;28;1357;-69
2022/01/28 15:10:53;;;;;;;;;;;20.50;55.40;;;;;;5053149;28;1035;-69
2022/01/28 15:13:19;;;;;;;;;;;20.50;55.50;;;;;;5053463;28;1361;-69
2022/01/28 15:15:44;;;;;;;;;;;20.50;55.50;;;;;;5034997;28;1958;-69
2022/01/28 15:18:10;;;;;;;;;;;20.50;55.50;;;;;;5051753;28;1209;-69
2022/01/28 15:20:35;;;;;;;;;;;20.50;55.50;;;;;;5052889;28;1107;-69
2022/01/28 15:23:01;;;;;;;;;;;20.50;55.50;;;;;;5053401;28;1381;-69
2022/01/28 15:25:26;;;;;;;;;;;20.40;55.50;;;;;;5051820;28;1305;-69
2022/01/28 15:27:52;;;;;;;;;;;20.40;55.50;;;;;;5052768;28;1383;-69
2022/01/28 15:38:11;;;;;;;;;;;20.30;53.10;;;;;;5052613;28;1373;-70
2022/01/28 15:40:36;;;;;;;;;;;20.30;52.60;;;;;;5034830;28;1424;-69
2022/01/28 15:43:02;;;;;;;;;;;20.30;52.20;;;;;;5052968;28;1359;-69
2022/01/28 15:45:31;;;;;;;;;;;20.30;53.00;;;;;;5052837;28;1231;-69
2022/01/28 15:47:57;;;;;;;;;;;20.20;52.60;;;;;;5052411;28;1637;-68
2022/01/28 15:50:24;;;;;;;;;;;20.20;52.10;;;;;;5060324;28;1855;-71
2022/01/28 15:52:49;;;;;;;;;;;20.20;52.30;;;;;;5046621;28;1231;-71
2022/01/28 15:55:16;;;;;;;;;;;20.20;52.60;;;;;;5047351;28;1965;-70
2022/01/28 15:57:42;;;;;;;;;;;20.20;52.80;;;;;;5052481;28;1312;-71
2022/01/28 16:00:07;;;;;;;;;;;20.20;52.90;;;;;;5051354;28;1304;-70
2022/01/28 16:02:33;;;;;;;;;;;20.20;53.10;;;;;;5052955;28;1297;-70
2022/01/28 16:04:58;;;;;;;;;;;20.20;53.20;;;;;;5042672;28;1220;-70
2022/01/28 16:07:24;;;;;;;;;;;20.20;53.30;;;;;;5042233;28;1128;-70